Pagrindinis puslapis
METAR-TAF:

METAR-TAF

Oro uostai :

Palembangas, Indonezija

platuma: 02-54S, ilguma: 104-42E, Aukštis: 10 m

Dabartinis oras

Ataskaita buvo paskelbta 14 valandos ir 44 minutes, ne 10:30 UTC
Vėjas 6 kt iš Pietų/Pietryčių
Temperatūra 29°C
Drėgmė 79%
Slėgis 1008 hPa
Matomumas 10 km arba daugiau
Mažai debesys ne aukštis 1000 ft

METAR: WIPP 041030Z 16006KT 9999 FEW010 29/25 Q1008 NOSIG

Laikas: 08:14 (01:14 UTC)

Prognozė

Ataskaita buvo paskelbta 2 valandos ir 14 minutes, ne 23:00 UTC
Prognozė galioja nuo 05 metu 00 UTC su 05 metu 24 UTC
Vėjas 5 kt nuo kintamojo kryptimis
Matomumas 10 km arba daugiau
Su prošvaistėmis ne aukštis 1000 ft
Laikinai
nuo 05 metu 05 UTC su 05 metu 09 UTC
Matomumas: 3000 m
lietus
Laikinai
nuo 05 metu 20 UTC su 05 metu 24 UTC
Matomumas: 3000 m
rūkana

TAF: WIPP 042300Z 0500/0524 VRB05KT 9999 BKN010 TEMPO 0505/0509 3000 RA FEW10CB TEMPO 0520/0524 3000 BR

Orai ataskaitas ir orų prognozės (METAR, TAF).

turimą stotys yra geltonos ir raudonos taškus žemėlapyje.

Perkelti pele per norėdami pamatyti stoties vardą.

Tada spustelėkite, norėdami matyti oro stebėjimo ir prognozės.

Norėdami pakeisti žemėlapį: spustelėkite ant žalios mygtukų su juodo kryžiaus žemyn,; žalią mygtuką su brūkšneliu, jei norite nutolinti; arba žalių rodyklių gretimoms žemėlapius.


METAR-TAF: